Hovedside
METAR-TAF:

METAR-TAF

Lufthavner :

Gamvik, Norge

Mehamn lufthavn

breddegrad: 71-02N, lengdegrad: 027-50E, høyde over havet: 1 m

Gjeldene værobservasjon

Denne rapporten ble laget for 9 timer og 35 minutter siden, klokken 21:50 UTC
Vind 10 kt fra Sørøst
Temperatur -5°C
Luftfuktighet 73%
Trykk 1008 hPa
Sikt 10 km eller mer
ingen skyer under 1500 m og ingen bygeskyer

METAR: ENMH 202150Z 13010KT CAVOK M05/M09 Q1008

Tid: 09:25 (07:25 UTC)


TAF: fraværende

Værobservasjoner og værvarsel for over 4000 flyplasser (METAR- og TAF-rapporter).

Tilgjengelige stasjoner er representert av de røde og gule prikkene på kartet.

Hold musepekeren over prikken for å se navnet på stasjonen.

Klikk så for å se værobservasjoner og -varsler.

For å forandre kartet kan du klikke på den grønne knappen med svart kryss for å zoome inn, på den grønne knappen med strek for å zoome ut, eller på de grønne pilene for å se tilstøtende kart.


METAR-TAF: